createdAt,value
2019-05-12T00:00:48.429Z,79.2542
2019-05-12T00:01:51.309Z,79.2542
2019-05-12T00:02:54.310Z,79.3579
2019-05-12T00:03:58.062Z,79.3579
2019-05-12T00:05:01.289Z,79.1504
2019-05-12T00:06:04.327Z,79.3213
2019-05-12T00:07:08.703Z,79.2175
2019-05-12T00:08:12.328Z,79.2175
2019-05-12T00:09:15.300Z,79.5227
2019-05-12T00:10:18.306Z,79.4189
2019-05-12T00:11:21.299Z,79.4189
2019-05-12T00:12:24.351Z,79.4189
2019-05-12T00:13:27.888Z,79.2175
2019-05-12T00:14:31.299Z,79.4189
2019-05-12T00:15:34.320Z,79.3213
2019-05-12T00:16:38.437Z,79.4189
2019-05-12T00:17:41.368Z,79.4189
2019-05-12T00:18:43.276Z,79.3213
2019-05-12T00:19:47.912Z,79.2175
2019-05-12T00:20:51.287Z,79.3213
2019-05-12T00:21:54.295Z,79.1138
2019-05-12T00:22:58.143Z,79.1138
2019-05-12T00:24:01.315Z,79.2175
2019-05-12T00:25:04.299Z,79.4189
2019-05-12T00:26:07.929Z,79.2175
2019-05-12T00:27:11.315Z,79.1138
2019-05-12T00:28:14.330Z,79.2175
2019-05-12T00:29:18.459Z,79.1138
2019-05-12T00:30:21.285Z,79.2175
2019-05-12T00:31:24.342Z,79.3213
2019-05-12T00:32:28.185Z,78.9062
2019-05-12T00:33:30.307Z,79.1138
2019-05-12T00:34:32.423Z,78.9062
2019-05-12T00:35:37.849Z,78.4973
2019-05-12T00:36:41.316Z,78.4973
2019-05-12T00:37:44.325Z,78.6011
2019-05-12T00:38:48.495Z,78.7048
2019-05-12T00:39:51.326Z,78.7048
2019-05-12T00:40:54.319Z,78.9062
2019-05-12T00:41:58.641Z,78.7048
2019-05-12T00:43:02.366Z,78.6011
2019-05-12T00:44:05.304Z,78.6011
2019-05-12T00:45:08.338Z,78.4973
2019-05-12T00:46:11.326Z,78.4302
2019-05-12T00:47:14.266Z,78.6377
2019-05-12T00:48:17.823Z,78.9429
2019-05-12T00:49:21.306Z,78.9429
2019-05-12T00:50:24.362Z,78.9429
2019-05-12T00:51:28.845Z,78.9429
2019-05-12T00:52:32.295Z,78.8452
2019-05-12T00:53:40.142Z,78.7048
2019-05-12T00:54:43.318Z,78.7415
2019-05-12T00:55:47.661Z,78.7048
2019-05-12T00:56:49.293Z,78.4973
2019-05-12T00:57:52.341Z,78.4973
2019-05-12T00:58:55.395Z,78.4973
2019-05-12T01:00:00.319Z,78.4973
2019-05-12T01:01:02.264Z,78.3936
2019-05-12T01:02:05.305Z,77.9846
2019-05-12T01:03:08.882Z,77.4719
2019-05-12T01:04:11.316Z,77.7771
2019-05-12T01:05:14.320Z,78.1250
2019-05-12T01:06:17.801Z,77.6123
2019-05-12T01:07:21.301Z,77.6123
2019-05-12T01:08:24.313Z,77.8137
2019-05-12T01:09:28.143Z,77.8137
2019-05-12T01:10:31.301Z,77.7100
2019-05-12T01:11:34.377Z,78.1250
2019-05-12T01:12:38.288Z,78.2288
2019-05-12T01:13:41.309Z,78.3264
2019-05-12T01:14:44.325Z,78.3264
2019-05-12T01:15:48.151Z,77.9175
2019-05-12T01:16:51.291Z,77.4048
2019-05-12T01:17:54.293Z,77.9175
2019-05-12T01:18:58.587Z,77.9175
2019-05-12T01:20:01.311Z,76.9287
2019-05-12T01:21:04.289Z,77.3376
2019-05-12T01:22:08.092Z,77.7466
2019-05-12T01:23:11.329Z,77.8503
2019-05-12T01:24:13.305Z,77.9541
2019-05-12T01:25:17.625Z,77.8503
2019-05-12T01:26:20.330Z,77.8503
2019-05-12T01:27:23.290Z,77.9541
2019-05-12T01:28:27.859Z,77.1301
2019-05-12T01:29:31.288Z,77.4414
2019-05-12T01:30:33.345Z,77.0630
2019-05-12T01:31:37.802Z,77.2705
2019-05-12T01:32:41.308Z,76.9653
2019-05-12T01:33:44.341Z,76.5503
2019-05-12T01:34:48.680Z,76.1414
2019-05-12T01:35:51.321Z,76.6907
2019-05-12T01:36:54.298Z,77.0996
2019-05-12T01:38:01.073Z,77.2034
2019-05-12T01:39:04.309Z,76.5869
2019-05-12T01:40:08.910Z,77.0996
2019-05-12T01:41:12.287Z,77.2034
2019-05-12T01:42:18.063Z,77.2034
2019-05-12T01:43:21.441Z,77.0996
2019-05-12T01:44:24.304Z,76.9958
2019-05-12T01:45:28.836Z,76.8982
2019-05-12T01:46:32.324Z,76.7944
2019-05-12T01:47:35.299Z,76.3794
2019-05-12T01:48:38.298Z,76.9958
2019-05-12T01:49:41.292Z,76.0742
2019-05-12T01:50:44.325Z,76.7944
2019-05-12T01:51:47.637Z,76.9958
2019-05-12T01:52:50.320Z,76.7944
2019-05-12T01:54:07.865Z,76.7944
2019-05-12T01:55:01.319Z,76.9958
2019-05-12T01:56:04.330Z,77.0996
2019-05-12T01:57:08.134Z,77.0996
2019-05-12T01:58:11.308Z,76.9958
2019-05-12T01:59:14.325Z,77.0996
2019-05-12T02:00:18.369Z,76.9958
2019-05-12T02:01:21.306Z,77.0996
2019-05-12T02:02:24.268Z,77.0996
2019-05-12T02:03:28.392Z,76.9958
2019-05-12T02:04:31.308Z,76.8982
2019-05-12T02:05:34.338Z,76.6907
2019-05-12T02:06:38.644Z,76.3794
2019-05-12T02:07:42.297Z,76.5869
2019-05-12T02:08:47.609Z,76.5869
2019-05-12T02:09:51.332Z,76.4832
2019-05-12T02:10:54.271Z,76.2817
2019-05-12T02:11:58.229Z,76.0742
2019-05-12T02:13:01.310Z,75.9705
2019-05-12T02:14:04.328Z,75.9705
2019-05-12T02:15:08.172Z,75.9705
2019-05-12T02:16:11.286Z,75.9705
2019-05-12T02:17:14.323Z,75.9705
2019-05-12T02:18:17.787Z,75.8667
2019-05-12T02:19:21.327Z,75.8667
2019-05-12T02:20:24.278Z,75.9705
2019-05-12T02:21:27.942Z,75.9705
2019-05-12T02:22:31.310Z,75.7629
2019-05-12T02:23:34.314Z,75.7629
2019-05-12T02:24:39.025Z,75.9705
2019-05-12T02:25:42.302Z,76.1780
2019-05-12T02:26:45.296Z,76.1780
2019-05-12T02:27:48.301Z,76.1780
2019-05-12T02:28:51.338Z,76.3794
2019-05-12T02:29:54.304Z,76.6907
2019-05-12T02:30:58.998Z,76.7944
2019-05-12T02:32:02.290Z,76.8982
2019-05-12T02:33:05.219Z,76.8982
2019-05-12T02:34:07.707Z,76.9958
2019-05-12T02:35:10.312Z,76.8982
2019-05-12T02:36:15.088Z,76.7944
2019-05-12T02:37:18.280Z,76.7578
2019-05-12T02:38:21.284Z,76.7578
2019-05-12T02:39:25.009Z,76.8616
2019-05-12T02:40:27.334Z,76.8616
2019-05-12T02:41:30.284Z,76.8616
2019-05-12T02:42:34.926Z,76.1414
2019-05-12T02:43:38.312Z,76.4465
2019-05-12T02:44:43.700Z,76.4465
2019-05-12T02:45:47.286Z,76.3489
2019-05-12T02:46:50.268Z,76.7578
2019-05-12T02:47:54.306Z,76.7578
2019-05-12T02:48:57.295Z,76.6541
2019-05-12T02:50:00.315Z,76.0376
2019-05-12T02:51:05.492Z,76.4465
2019-05-12T02:52:07.317Z,76.6541
2019-05-12T02:53:10.288Z,76.7578
2019-05-12T02:54:14.388Z,76.6541
2019-05-12T02:55:17.296Z,76.4465
2019-05-12T02:56:20.305Z,74.9084
2019-05-12T02:57:25.535Z,75.0122
2019-05-12T02:58:29.276Z,75.7324
2019-05-12T02:59:34.723Z,75.8301
2019-05-12T03:00:38.347Z,75.5249
2019-05-12T03:01:41.294Z,76.2451
2019-05-12T03:02:44.397Z,76.2451
2019-05-12T03:03:47.289Z,76.1414
2019-05-12T03:04:50.376Z,76.0376
2019-05-12T03:05:54.858Z,75.8301
2019-05-12T03:07:02.078Z,75.6287
2019-05-12T03:08:06.289Z,75.9338
2019-05-12T03:09:09.305Z,75.9338
2019-05-12T03:10:14.584Z,75.6287
2019-05-12T03:11:17.334Z,75.8301
2019-05-12T03:12:20.252Z,75.6287
2019-05-12T03:13:25.030Z,75.6287
2019-05-12T03:14:28.294Z,75.6653
2019-05-12T03:15:31.299Z,75.7629
2019-05-12T03:16:35.110Z,75.6653
2019-05-12T03:17:38.279Z,75.8667
2019-05-12T03:18:44.685Z,75.6287
2019-05-12T03:19:48.299Z,75.5249
2019-05-12T03:20:54.079Z,75.7324
2019-05-12T03:21:57.288Z,75.8301
2019-05-12T03:23:00.328Z,75.9338
2019-05-12T03:24:05.697Z,75.8301
2019-05-12T03:25:19.958Z,75.1160
2019-05-12T03:26:17.307Z,75.4211
2019-05-12T03:27:20.320Z,75.5249
2019-05-12T03:28:25.610Z,75.6287
2019-05-12T03:29:29.316Z,75.6287
2019-05-12T03:30:37.135Z,75.4211
2019-05-12T03:31:41.332Z,75.5249
2019-05-12T03:32:47.229Z,75.6287
2019-05-12T03:33:54.249Z,75.7324
2019-05-12T03:34:59.356Z,75.1160
2019-05-12T03:36:08.434Z,75.5249
2019-05-12T03:37:10.329Z,75.5249
2019-05-12T03:38:14.820Z,75.2136
2019-05-12T03:39:18.266Z,75.0427
2019-05-12T03:40:24.693Z,75.0427
2019-05-12T03:41:28.300Z,75.0427
2019-05-12T03:42:31.293Z,74.9451
2019-05-12T03:43:35.136Z,74.9451
2019-05-12T03:44:38.347Z,74.8413
2019-05-12T03:45:44.978Z,74.6338
2019-05-12T03:46:47.288Z,74.4263
2019-05-12T03:47:50.299Z,74.3286
2019-05-12T03:48:55.365Z,74.1211
2019-05-12T03:49:58.340Z,74.0173
2019-05-12T03:51:01.284Z,73.8098
2019-05-12T03:52:05.228Z,73.6084
2019-05-12T03:53:10.839Z,73.6084
2019-05-12T03:54:15.244Z,73.4009
2019-05-12T03:55:31.678Z,73.8464
2019-05-12T03:56:26.471Z,73.9502
2019-05-12T03:57:29.285Z,73.8464
2019-05-12T03:58:34.559Z,73.8464
2019-05-12T03:59:38.293Z,73.9502
2019-05-12T04:00:44.184Z,73.7427
2019-05-12T04:01:46.286Z,73.8464
2019-05-12T04:02:49.295Z,73.3337
2019-05-12T04:03:54.200Z,73.9502
2019-05-12T04:04:57.301Z,74.3591
2019-05-12T04:06:00.329Z,74.5667
2019-05-12T04:07:05.133Z,74.8718
2019-05-12T04:08:08.316Z,74.9756
2019-05-12T04:09:11.292Z,75.1831
2019-05-12T04:10:15.598Z,75.1831
2019-05-12T04:11:19.308Z,75.1831
2019-05-12T04:12:25.302Z,75.1831
2019-05-12T04:13:28.248Z,75.1831
2019-05-12T04:14:34.367Z,75.0793
2019-05-12T04:15:37.313Z,75.0427
2019-05-12T04:16:40.335Z,74.9756
2019-05-12T04:17:45.231Z,74.9756
2019-05-12T04:18:48.289Z,74.8718
2019-05-12T04:19:51.347Z,74.7742
2019-05-12T04:20:54.587Z,74.7742
2019-05-12T04:21:57.349Z,74.8718
2019-05-12T04:23:00.279Z,74.5667
2019-05-12T04:24:05.556Z,74.4629
2019-05-12T04:25:08.328Z,74.5667
2019-05-12T04:26:15.736Z,74.6704
2019-05-12T04:27:19.266Z,74.6704
2019-05-12T04:28:24.559Z,74.8718
2019-05-12T04:29:27.286Z,74.8718
2019-05-12T04:30:30.356Z,74.9756
2019-05-12T04:31:34.759Z,74.9756
2019-05-12T04:32:38.297Z,74.8718
2019-05-12T04:33:41.307Z,74.8413
2019-05-12T04:34:44.732Z,74.8413
2019-05-12T04:35:48.331Z,74.8413
2019-05-12T04:36:51.320Z,74.8413
2019-05-12T04:37:55.290Z,74.8413
2019-05-12T04:38:58.289Z,74.9451
2019-05-12T04:40:01.316Z,75.0427
2019-05-12T04:41:05.863Z,75.2502
2019-05-12T04:42:09.265Z,75.4578
2019-05-12T04:43:14.560Z,75.7629
2019-05-12T04:44:17.282Z,75.8667
2019-05-12T04:45:20.323Z,75.9338
2019-05-12T04:46:25.284Z,76.0376
2019-05-12T04:47:27.310Z,76.0376
2019-05-12T04:48:30.291Z,76.1414
2019-05-12T04:49:34.626Z,76.1414
2019-05-12T04:50:37.325Z,76.2085
2019-05-12T04:51:40.279Z,76.3123
2019-05-12T04:52:44.648Z,75.8972
2019-05-12T04:53:48.272Z,75.7996
2019-05-12T04:54:51.292Z,76.0010
2019-05-12T04:56:09.662Z,76.1047
2019-05-12T04:57:04.178Z,76.3123
2019-05-12T04:58:07.286Z,76.4160
2019-05-12T04:59:10.301Z,76.4160
2019-05-12T05:00:15.860Z,76.3123
2019-05-12T05:01:19.287Z,76.4160
2019-05-12T05:02:25.060Z,76.5137
2019-05-12T05:03:28.300Z,76.5808
2019-05-12T05:04:31.320Z,76.6846
2019-05-12T05:05:35.324Z,76.6846
2019-05-12T05:06:39.295Z,76.6846
2019-05-12T05:07:44.834Z,76.6846
2019-05-12T05:08:48.295Z,76.7883
2019-05-12T05:09:51.326Z,76.6479
2019-05-12T05:10:54.885Z,76.4465
2019-05-12T05:11:58.299Z,76.4465
2019-05-12T05:13:01.290Z,76.5503
2019-05-12T05:14:04.460Z,76.4465
2019-05-12T05:15:07.326Z,76.3428
2019-05-12T05:16:10.316Z,76.3794
2019-05-12T05:17:15.072Z,76.5808
2019-05-12T05:18:18.288Z,75.5554
2019-05-12T05:19:21.264Z,75.8667
2019-05-12T05:20:24.349Z,76.2756
2019-05-12T05:21:27.283Z,76.5137
2019-05-12T05:22:30.254Z,76.3123
2019-05-12T05:23:33.588Z,75.3845
2019-05-12T05:24:35.304Z,76.2085
2019-05-12T05:25:38.358Z,76.4160
2019-05-12T05:26:43.448Z,76.0010
2019-05-12T05:27:46.312Z,76.3123
2019-05-12T05:28:49.268Z,76.0010
2019-05-12T05:29:54.184Z,75.8301
2019-05-12T05:30:57.287Z,76.0376
2019-05-12T05:32:00.289Z,75.0122
2019-05-12T05:33:04.490Z,75.7324
2019-05-12T05:34:08.278Z,75.6287
2019-05-12T05:35:13.301Z,76.1414
2019-05-12T05:36:19.746Z,76.1414
2019-05-12T05:37:23.921Z,76.1414
2019-05-12T05:38:27.290Z,76.2451
2019-05-12T05:39:30.300Z,76.0376
2019-05-12T05:40:35.359Z,75.9338
2019-05-12T05:41:40.337Z,75.2136
2019-05-12T05:42:47.285Z,73.9807
2019-05-12T05:43:54.278Z,73.8831
2019-05-12T05:44:57.269Z,74.3958
2019-05-12T05:46:07.048Z,74.4995
2019-05-12T05:47:10.337Z,74.8047
2019-05-12T05:48:13.705Z,74.8413
2019-05-12T05:49:16.301Z,74.8047
2019-05-12T05:50:25.106Z,73.4009
2019-05-12T05:51:27.332Z,74.0173
2019-05-12T05:52:33.062Z,74.1211
2019-05-12T05:53:38.306Z,74.7375
2019-05-12T05:54:41.271Z,74.2249
2019-05-12T05:55:44.342Z,74.4263
2019-05-12T05:56:57.498Z,74.2249
2019-05-12T05:57:59.708Z,74.4263
2019-05-12T05:59:05.337Z,74.6338
2019-05-12T06:00:17.320Z,74.7375
2019-05-12T06:01:16.355Z,74.9084
2019-05-12T06:02:24.440Z,74.9084
2019-05-12T06:03:28.054Z,74.9084
2019-05-12T06:04:31.298Z,75.0122
2019-05-12T06:05:38.544Z,74.9084
2019-05-12T06:06:50.405Z,74.8718
2019-05-12T06:07:50.304Z,74.9756
2019-05-12T06:08:54.496Z,74.5667
2019-05-12T06:09:57.317Z,73.5352
2019-05-12T06:11:00.300Z,74.0540
2019-05-12T06:12:05.280Z,74.4629
2019-05-12T06:13:11.253Z,73.8464
2019-05-12T06:14:16.276Z,74.2554
2019-05-12T06:15:19.285Z,74.0540
2019-05-12T06:16:25.088Z,74.1516
2019-05-12T06:17:28.290Z,74.2554
2019-05-12T06:18:33.305Z,74.5667
2019-05-12T06:19:36.306Z,74.7681
2019-05-12T06:20:39.268Z,74.0540
2019-05-12T06:21:44.055Z,74.1516
2019-05-12T06:22:48.603Z,73.9502
2019-05-12T06:23:55.315Z,74.1516
2019-05-12T06:24:59.004Z,73.4375
2019-05-12T06:26:04.352Z,73.5352
2019-05-12T06:27:15.112Z,73.3337
2019-05-12T06:28:16.264Z,73.8464
2019-05-12T06:29:20.789Z,73.4375
2019-05-12T06:30:25.288Z,73.7061
2019-05-12T06:31:29.806Z,72.2717
2019-05-12T06:32:33.675Z,72.8882
2019-05-12T06:33:36.507Z,73.1934
2019-05-12T06:34:39.299Z,72.3755
2019-05-12T06:35:45.124Z,73.4009
2019-05-12T06:36:48.335Z,74.0173
2019-05-12T06:38:00.185Z,74.2249
2019-05-12T06:38:59.297Z,74.2249
2019-05-12T06:40:03.589Z,73.9136
2019-05-12T06:41:06.333Z,74.3225
2019-05-12T06:42:14.134Z,74.4263
2019-05-12T06:43:17.335Z,74.2249
2019-05-12T06:44:20.272Z,73.6084
2019-05-12T06:45:23.530Z,74.2249
2019-05-12T06:46:26.300Z,74.6338
2019-05-12T06:47:28.327Z,74.5300
2019-05-12T06:48:33.210Z,74.5300
2019-05-12T06:49:36.309Z,74.1882
2019-05-12T06:50:39.567Z,74.3958
2019-05-12T06:51:44.295Z,74.0845
2019-05-12T06:52:49.123Z,74.7681
2019-05-12T06:53:53.463Z,74.8718
2019-05-12T06:54:56.810Z,73.9502
2019-05-12T06:56:00.318Z,73.5046
2019-05-12T06:57:18.548Z,73.9136
2019-05-12T06:58:13.811Z,73.5046
2019-05-12T06:59:17.338Z,73.4680
2019-05-12T07:00:22.378Z,73.2666
2019-05-12T07:01:28.315Z,73.2666
2019-05-12T07:02:37.188Z,74.0845
2019-05-12T07:03:39.281Z,74.0845
2019-05-12T07:04:47.498Z,74.0479
2019-05-12T07:05:50.270Z,74.2554
2019-05-12T07:06:56.086Z,73.8464
2019-05-12T07:08:04.000Z,73.1262
2019-05-12T07:09:09.864Z,71.6919
2019-05-12T07:10:35.172Z,72.0337
2019-05-12T07:11:24.292Z,71.1121
2019-05-12T07:12:32.781Z,70.4956
2019-05-12T07:13:34.362Z,71.6614
2019-05-12T07:14:37.328Z,72.4792
2019-05-12T07:15:40.730Z,73.0957
2019-05-12T07:16:44.296Z,73.3643
2019-05-12T07:17:49.738Z,73.5718
2019-05-12T07:18:54.176Z,73.7793
2019-05-12T07:19:58.363Z,73.6755
2019-05-12T07:21:01.334Z,72.6501
2019-05-12T07:22:18.844Z,72.9553
2019-05-12T07:23:14.261Z,73.2971
2019-05-12T07:24:17.330Z,73.1934
2019-05-12T07:25:22.933Z,73.1934
2019-05-12T07:26:28.308Z,73.8770
2019-05-12T07:27:36.814Z,74.0845
2019-05-12T07:28:40.471Z,74.2920
2019-05-12T07:29:43.667Z,74.3896
2019-05-12T07:30:46.294Z,74.3591
2019-05-12T07:31:49.294Z,74.3591
2019-05-12T07:32:59.379Z,74.1516
2019-05-12T07:34:00.285Z,74.1516
2019-05-12T07:35:03.913Z,74.1516
2019-05-12T07:36:07.270Z,74.1516
2019-05-12T07:37:10.283Z,73.9502
2019-05-12T07:38:20.970Z,73.2300
2019-05-12T07:39:21.299Z,72.5159
2019-05-12T07:40:29.719Z,71.5942
2019-05-12T07:41:34.201Z,71.9299
2019-05-12T07:42:39.536Z,71.4172
2019-05-12T07:43:44.357Z,72.1375
2019-05-12T07:44:47.322Z,72.0703
2019-05-12T07:45:53.979Z,72.7844
2019-05-12T07:46:58.316Z,72.5830
2019-05-12T07:48:08.144Z,71.9666
2019-05-12T07:49:09.304Z,71.9971
2019-05-12T07:50:16.192Z,71.5881
2019-05-12T07:51:20.306Z,72.3083
2019-05-12T07:52:24.235Z,72.2046
2019-05-12T07:53:27.319Z,72.2046
2019-05-12T07:54:35.344Z,72.8210
2019-05-12T07:55:39.856Z,72.5098
2019-05-12T07:56:46.300Z,72.9248
2019-05-12T07:57:55.368Z,72.6135
2019-05-12T07:58:57.344Z,73.1262
2019-05-12T08:00:00.294Z,73.4009
2019-05-12T08:01:07.662Z,73.5046
2019-05-12T08:02:10.280Z,73.4009
2019-05-12T08:03:19.005Z,73.3643
2019-05-12T08:04:21.303Z,73.4680
2019-05-12T08:05:24.326Z,73.4680
2019-05-12T08:06:31.870Z,73.3643
2019-05-12T08:07:35.307Z,73.1628
2019-05-12T08:08:41.884Z,72.7539
2019-05-12T08:09:46.326Z,72.9248
2019-05-12T08:10:51.503Z,72.7173
2019-05-12T08:11:56.342Z,72.2046
2019-05-12T08:13:00.883Z,72.7173
2019-05-12T08:14:04.288Z,72.8210
2019-05-12T08:15:09.596Z,73.2300
2019-05-12T08:16:14.171Z,72.7173
2019-05-12T08:17:19.658Z,73.0286
2019-05-12T08:18:24.616Z,73.1995
2019-05-12T08:19:28.575Z,72.7844
2019-05-12T08:20:31.305Z,72.4792
2019-05-12T08:21:34.757Z,72.1375
2019-05-12T08:22:43.609Z,72.7539
2019-05-12T08:23:47.308Z,72.9553
2019-05-12T08:24:50.312Z,73.1262
2019-05-12T08:25:54.025Z,72.8210
2019-05-12T08:27:03.332Z,72.1069
2019-05-12T08:28:14.968Z,71.4600
2019-05-12T08:29:16.889Z,70.0256
2019-05-12T08:30:21.271Z,71.3562
2019-05-12T08:31:31.894Z,72.0703
2019-05-12T08:32:33.869Z,70.7092
2019-05-12T08:33:37.291Z,71.5271
2019-05-12T08:34:40.311Z,72.1069
2019-05-12T08:35:43.902Z,72.3083
2019-05-12T08:36:53.276Z,71.8018
2019-05-12T08:37:55.307Z,71.3562
2019-05-12T08:38:58.316Z,71.4600
2019-05-12T08:40:04.366Z,71.4600
2019-05-12T08:41:09.285Z,72.0703
2019-05-12T08:42:14.377Z,71.7651
2019-05-12T08:43:17.291Z,72.1741
2019-05-12T08:44:24.842Z,71.1548
2019-05-12T08:45:34.002Z,71.1548
2019-05-12T08:46:36.292Z,70.3369
2019-05-12T08:47:39.365Z,71.3562
2019-05-12T08:48:44.390Z,69.4214
2019-05-12T08:49:55.156Z,67.1021
2019-05-12T08:50:56.315Z,68.9392
2019-05-12T08:52:00.360Z,70.2698
2019-05-12T08:53:04.704Z,69.1467
2019-05-12T08:54:08.501Z,69.8608
2019-05-12T08:55:13.856Z,70.7764
2019-05-12T08:56:22.886Z,70.2698
2019-05-12T08:57:34.827Z,70.3674
2019-05-12T08:58:47.301Z,70.5750
2019-05-12T08:59:44.119Z,69.6228
2019-05-12T09:00:50.307Z,68.9453
2019-05-12T09:01:54.297Z,68.6768
2019-05-12T09:02:57.327Z,68.3411
2019-05-12T09:04:05.423Z,68.5120
2019-05-12T09:05:08.299Z,68.6157
2019-05-12T09:06:17.919Z,68.5425
2019-05-12T09:07:19.304Z,68.8477
2019-05-12T09:08:24.218Z,68.4448
2019-05-12T09:09:27.271Z,68.4448
2019-05-12T09:10:30.326Z,68.9209
2019-05-12T09:11:33.688Z,68.3777
2019-05-12T09:12:37.303Z,67.6025
2019-05-12T09:13:40.340Z,66.5222
2019-05-12T09:14:46.161Z,65.3442
2019-05-12T09:15:49.343Z,66.0217
2019-05-12T09:16:53.670Z,65.0208
2019-05-12T09:18:00.370Z,63.3667
2019-05-12T09:19:04.883Z,64.1052
2019-05-12T09:20:08.656Z,64.8193
2019-05-12T09:21:14.054Z,65.2222
2019-05-12T09:22:20.836Z,65.3564
2019-05-12T09:23:24.350Z,66.4673
2019-05-12T09:24:27.551Z,66.4001
2019-05-12T09:25:30.357Z,66.3269
2019-05-12T09:26:34.438Z,64.7034
2019-05-12T09:27:39.452Z,65.0085
2019-05-12T09:28:50.086Z,65.5151
2019-05-12T09:29:54.014Z,65.6189
2019-05-12T09:30:57.403Z,66.1560
2019-05-12T09:32:05.467Z,66.7664
2019-05-12T09:33:08.331Z,65.0696
2019-05-12T09:34:13.482Z,58.5999
2019-05-12T09:35:19.307Z,56.0852
2019-05-12T09:36:24.278Z,57.8125
2019-05-12T09:37:30.909Z,57.6416
2019-05-12T09:38:35.331Z,57.3608
2019-05-12T09:39:42.454Z,56.1646
2019-05-12T09:40:46.329Z,59.2224
2019-05-12T09:41:52.583Z,60.8459
2019-05-12T09:43:00.250Z,60.3088
2019-05-12T09:44:05.311Z,59.1614
2019-05-12T09:45:10.504Z,59.7717
2019-05-12T09:46:14.518Z,59.0881
2019-05-12T09:47:22.948Z,58.0750
2019-05-12T09:48:25.338Z,59.4238
2019-05-12T09:49:38.451Z,60.3394
2019-05-12T09:50:36.310Z,59.9304
2019-05-12T09:51:45.649Z,61.8652
2019-05-12T09:52:50.186Z,63.2874
2019-05-12T09:53:55.562Z,63.1592
2019-05-12T09:54:59.307Z,63.9404
2019-05-12T09:56:04.349Z,63.6353
2019-05-12T09:57:07.363Z,64.4226
2019-05-12T09:58:13.976Z,64.1846
2019-05-12T09:59:22.568Z,64.7644
2019-05-12T10:00:25.334Z,64.4287
2019-05-12T10:01:29.267Z,63.2141
2019-05-12T10:02:36.336Z,60.7788
2019-05-12T10:03:40.154Z,61.4868
2019-05-12T10:04:43.765Z,59.1553
2019-05-12T10:05:46.311Z,58.2703
2019-05-12T10:06:49.355Z,59.9915
2019-05-12T10:07:53.623Z,61.3403
2019-05-12T10:08:56.308Z,63.6780
2019-05-12T10:09:59.173Z,62.1582
2019-05-12T10:11:03.723Z,55.8044
2019-05-12T10:12:07.321Z,56.8665
2019-05-12T10:13:10.305Z,57.2205
2019-05-12T10:14:13.975Z,57.8735
2019-05-12T10:15:18.710Z,59.2102
2019-05-12T10:16:25.304Z,60.2356
2019-05-12T10:17:30.135Z,58.9966
2019-05-12T10:18:33.646Z,58.5632
2019-05-12T10:19:37.314Z,59.7473
2019-05-12T10:20:40.283Z,59.1125
2019-05-12T10:21:44.013Z,45.6421
2019-05-12T10:22:47.328Z,50.8240
2019-05-12T10:23:51.517Z,53.6743
2019-05-12T10:24:58.701Z,49.0784
2019-05-12T10:26:09.471Z,49.9329
2019-05-12T10:27:10.317Z,50.7690
2019-05-12T10:28:15.898Z,50.1404
2019-05-12T10:29:20.804Z,50.9460
2019-05-12T10:30:24.289Z,52.1606
2019-05-12T10:31:29.529Z,51.2756
2019-05-12T10:32:35.315Z,52.6123
2019-05-12T10:33:38.318Z,51.4221
2019-05-12T10:34:41.290Z,54.9927
2019-05-12T10:35:44.315Z,53.3997
2019-05-12T10:36:49.220Z,48.6572
2019-05-12T10:37:53.745Z,53.1677
2019-05-12T10:38:57.326Z,52.3804
2019-05-12T10:40:00.340Z,52.7893
2019-05-12T10:41:04.319Z,52.9114
2019-05-12T10:42:07.292Z,55.0720
2019-05-12T10:43:10.363Z,55.2002
2019-05-12T10:44:13.931Z,54.8950
2019-05-12T10:45:20.605Z,56.0364
2019-05-12T10:46:28.627Z,56.9519
2019-05-12T10:47:34.262Z,56.9519
2019-05-12T10:48:38.357Z,56.4453
2019-05-12T10:49:41.310Z,54.9438
2019-05-12T10:50:44.248Z,57.5928
2019-05-12T10:51:47.778Z,55.4565
2019-05-12T10:52:53.519Z,55.7617
2019-05-12T10:54:01.965Z,57.3853
2019-05-12T10:55:04.515Z,57.4890
2019-05-12T10:56:06.288Z,58.0994
2019-05-12T10:57:09.363Z,59.1187
2019-05-12T10:58:14.346Z,59.8328
2019-05-12T10:59:29.167Z,60.6140
2019-05-12T11:00:26.854Z,60.6140
2019-05-12T11:01:30.292Z,58.7280
2019-05-12T11:02:33.680Z,56.9763
2019-05-12T11:03:37.311Z,57.5867
2019-05-12T11:04:41.281Z,55.1208
2019-05-12T11:05:46.354Z,57.2815
2019-05-12T11:06:49.328Z,55.8350
2019-05-12T11:07:53.978Z,56.7932
2019-05-12T11:08:57.334Z,55.1941
2019-05-12T11:10:03.536Z,53.7231
2019-05-12T11:11:08.325Z,56.7810
2019-05-12T11:12:13.663Z,54.0771
2019-05-12T11:13:18.109Z,55.9143
2019-05-12T11:14:26.320Z,55.3589
2019-05-12T11:15:29.297Z,52.5146
2019-05-12T11:16:34.453Z,54.4006
2019-05-12T11:17:40.174Z,49.3713
2019-05-12T11:18:43.731Z,46.5820
2019-05-12T11:19:51.335Z,48.5413
2019-05-12T11:20:55.306Z,51.4038
2019-05-12T11:21:58.280Z,49.8962
2019-05-12T11:23:03.298Z,48.9624
2019-05-12T11:24:07.297Z,48.2361
2019-05-12T11:25:10.389Z,45.0928
2019-05-12T11:26:14.184Z,44.0674
2019-05-12T11:27:17.332Z,46.8811
2019-05-12T11:28:20.326Z,48.6145
2019-05-12T11:29:23.641Z,41.8945
2019-05-12T11:30:27.339Z,41.0217
2019-05-12T11:31:30.281Z,45.8069
2019-05-12T11:32:34.928Z,45.7031
2019-05-12T11:33:43.471Z,45.7458
2019-05-12T11:34:47.308Z,50.1160
2019-05-12T11:35:50.343Z,52.1362
2019-05-12T11:36:54.532Z,52.0325
2019-05-12T11:37:56.279Z,51.4038
2019-05-12T11:38:59.298Z,47.8882
2019-05-12T11:40:04.272Z,42.7368
2019-05-12T11:41:09.908Z,45.2026
2019-05-12T11:42:15.286Z,46.9482
2019-05-12T11:43:18.318Z,45.9595
2019-05-12T11:44:23.177Z,49.3225
2019-05-12T11:45:26.371Z,52.0813
2019-05-12T11:46:29.265Z,49.3652
2019-05-12T11:47:35.572Z,50.7874
2019-05-12T11:48:45.184Z,49.1882
2019-05-12T11:49:48.281Z,52.5574
2019-05-12T11:50:51.472Z,53.6743
2019-05-12T11:51:54.495Z,52.3560
2019-05-12T11:52:57.300Z,53.1677
2019-05-12T11:54:03.414Z,52.9663
2019-05-12T11:55:08.295Z,52.9907
2019-05-12T11:56:10.332Z,55.0171
2019-05-12T11:57:13.310Z,55.3223
2019-05-12T11:58:16.338Z,55.4260
2019-05-12T11:59:19.305Z,55.6030
2019-05-12T12:00:24.197Z,55.0415
2019-05-12T12:01:27.335Z,55.8044
2019-05-12T12:02:30.630Z,54.6387
2019-05-12T12:03:34.290Z,53.1433
2019-05-12T12:04:37.315Z,52.5879
2019-05-12T12:05:40.285Z,52.9419
2019-05-12T12:06:43.811Z,50.7019
2019-05-12T12:07:51.379Z,49.7498
2019-05-12T12:08:54.298Z,51.7334
2019-05-12T12:09:59.444Z,50.9827
2019-05-12T12:11:03.975Z,51.0620
2019-05-12T12:12:07.539Z,50.0305
2019-05-12T12:13:10.281Z,45.4102
2019-05-12T12:14:14.269Z,46.6919
2019-05-12T12:15:20.472Z,46.0876
2019-05-12T12:16:25.334Z,46.6919
2019-05-12T12:17:31.017Z,49.2065
2019-05-12T12:18:35.312Z,49.3835
2019-05-12T12:19:43.851Z,49.2798
2019-05-12T12:20:46.322Z,51.0864
2019-05-12T12:21:50.155Z,50.4089
2019-05-12T12:22:54.259Z,48.8281
2019-05-12T12:23:57.320Z,49.9512
2019-05-12T12:25:03.186Z,50.7812
2019-05-12T12:26:08.324Z,50.6042
2019-05-12T12:27:11.316Z,50.2258
2019-05-12T12:28:14.366Z,49.0417
2019-05-12T12:29:17.289Z,45.8618
2019-05-12T12:30:20.315Z,45.9839
2019-05-12T12:31:23.832Z,50.1648
2019-05-12T12:32:27.343Z,50.2930
2019-05-12T12:33:31.130Z,51.0498
2019-05-12T12:34:38.320Z,44.2932
2019-05-12T12:35:41.372Z,44.2383
2019-05-12T12:36:44.260Z,43.0420
2019-05-12T12:37:47.343Z,44.9890
2019-05-12T12:38:50.296Z,45.0073
2019-05-12T12:39:53.662Z,47.8699
2019-05-12T12:40:57.283Z,48.0713
2019-05-12T12:42:00.897Z,50.5066
2019-05-12T12:43:04.333Z,49.2676
2019-05-12T12:44:07.273Z,50.4578
2019-05-12T12:45:10.346Z,49.7253
2019-05-12T12:46:18.178Z,51.2207
2019-05-12T12:47:23.691Z,51.1719
2019-05-12T12:48:29.741Z,49.7314
2019-05-12T12:49:33.947Z,50.9216
2019-05-12T12:50:37.283Z,51.9348
2019-05-12T12:51:40.310Z,48.3948
2019-05-12T12:52:44.855Z,50.0916
2019-05-12T12:53:51.358Z,50.1892
2019-05-12T12:54:54.407Z,48.9014
2019-05-12T12:55:58.672Z,49.3042
2019-05-12T12:57:06.322Z,50.0366